Time;durP1;ratioP1;P1;durP2;ratioP2;P2;SDS_P1;SDS_P2;PMS_P1;PMS_P2;Temp;Humidity;BMP_temperature;BMP_pressure;BME280_temperature;BME280_humidity;BME280_pressure;Samples;Min_cycle;Max_cycle;Signal;HPM_P1;HPM_P2
2022/04/04 00:00:30;;;;;;;;;;;15.50;52.60;;;;;;5211482;28;20293;-34
2022/04/04 00:03:10;;;;;;;;;;;15.60;52.60;;;;;;5211511;28;19928;-33
2022/04/04 00:05:41;;;;;;;;;;;15.60;52.70;;;;;;5210719;28;19928;-34
2022/04/04 00:08:12;;;;;;;;;;;15.60;52.60;;;;;;5212150;28;20282;-34
2022/04/04 00:10:43;;;;;;;;;;;15.60;52.70;;;;;;5211524;28;20012;-33
2022/04/04 00:13:14;;;;;;;;;;;15.60;52.80;;;;;;5211293;28;20019;-34
2022/04/04 00:15:45;;;;;;;;;;;15.60;53.00;;;;;;5211126;28;19924;-34
2022/04/04 00:18:16;;;;;;;;;;;15.50;53.00;;;;;;5211231;28;19967;-34
2022/04/04 00:20:47;;;;;;;;;;;15.50;53.00;;;;;;5211219;28;19920;-34
2022/04/04 00:23:18;;;;;;;;;;;15.50;52.90;;;;;;5210931;28;19921;-34
2022/04/04 00:25:49;;;;;;;;;;;15.60;52.90;;;;;;5210786;28;19960;-34
2022/04/04 00:28:20;;;;;;;;;;;15.60;52.90;;;;;;5210739;28;19964;-34
2022/04/04 00:30:51;;;;;;;;;;;15.60;53.00;;;;;;5210885;28;19921;-33
2022/04/04 00:33:22;;;;;;;;;;;15.50;53.10;;;;;;5210774;28;19928;-34
2022/04/04 00:35:53;;;;;;;;;;;15.60;53.70;;;;;;5210801;28;19921;-34
2022/04/04 00:38:24;;;;;;;;;;;15.60;53.30;;;;;;5210502;28;19951;-34
2022/04/04 00:40:55;;;;;;;;;;;15.50;53.30;;;;;;5210753;28;19920;-34
2022/04/04 00:43:26;;;;;;;;;;;15.50;53.30;;;;;;5210801;28;20283;-34
2022/04/04 00:45:59;;;;;;;;;;;15.50;53.30;;;;;;5210322;28;19968;-34
2022/04/04 00:48:30;;;;;;;;;;;15.50;53.40;;;;;;5210694;28;20350;-34
2022/04/04 00:51:01;;;;;;;;;;;15.40;53.60;;;;;;5210244;28;19921;-34
2022/04/04 00:53:32;;;;;;;;;;;15.50;53.70;;;;;;5193102;28;19921;-33
2022/04/04 00:56:03;;;;;;;;;;;15.40;53.60;;;;;;5210322;28;19921;-34
2022/04/04 00:58:35;;;;;;;;;;;15.40;53.60;;;;;;5210312;28;20440;-34
2022/04/04 01:01:06;;;;;;;;;;;15.40;53.70;;;;;;5210353;28;19990;-34
2022/04/04 01:03:37;;;;;;;;;;;15.40;53.80;;;;;;5209766;28;19925;-34
2022/04/04 01:06:09;;;;;;;;;;;15.40;54.00;;;;;;5209711;28;19921;-34
2022/04/04 01:08:40;;;;;;;;;;;15.40;54.10;;;;;;5210209;28;19921;-33
2022/04/04 01:11:11;;;;;;;;;;;15.40;54.30;;;;;;5210088;28;19921;-34
2022/04/04 01:13:46;;;;;;;;;;;15.40;54.60;;;;;;5210184;28;20012;-34
2022/04/04 01:16:17;;;;;;;;;;;15.40;54.90;;;;;;5210073;28;19925;-34
2022/04/04 01:18:48;;;;;;;;;;;15.50;55.30;;;;;;5209915;28;20294;-33
2022/04/04 01:21:19;;;;;;;;;;;15.50;55.70;;;;;;5209610;28;19921;-34
2022/04/04 01:23:50;;;;;;;;;;;15.50;56.70;;;;;;5209876;28;19944;-34
2022/04/04 01:26:21;;;;;;;;;;;15.50;56.60;;;;;;5208721;28;20394;-34
2022/04/04 01:28:52;;;;;;;;;;;15.50;57.00;;;;;;5209894;28;19947;-34
2022/04/04 01:31:23;;;;;;;;;;;15.50;57.20;;;;;;5210131;28;19967;-34
2022/04/04 01:33:54;;;;;;;;;;;15.50;57.40;;;;;;5210078;28;19971;-34
2022/04/04 01:36:25;;;;;;;;;;;15.50;57.70;;;;;;5209812;28;19921;-34
2022/04/04 01:38:56;;;;;;;;;;;15.50;58.00;;;;;;5209546;28;19927;-33
2022/04/04 01:41:27;;;;;;;;;;;15.50;58.20;;;;;;5209448;28;19928;-33
2022/04/04 01:43:57;;;;;;;;;;;15.50;58.40;;;;;;5209600;28;19921;-33
2022/04/04 01:46:28;;;;;;;;;;;15.50;58.70;;;;;;5209507;28;19921;-34
2022/04/04 01:49:00;;;;;;;;;;;15.60;59.10;;;;;;5209484;28;19944;-34
2022/04/04 01:51:32;;;;;;;;;;;15.60;59.10;;;;;;5209330;28;19921;-33
2022/04/04 01:54:03;;;;;;;;;;;15.70;59.30;;;;;;5209414;28;19928;-34
2022/04/04 01:56:34;;;;;;;;;;;15.70;59.20;;;;;;5209648;28;20432;-34
2022/04/04 01:59:05;;;;;;;;;;;15.70;59.20;;;;;;5190972;28;19959;-34
2022/04/04 02:01:36;;;;;;;;;;;15.70;59.10;;;;;;5209191;28;19952;-34
2022/04/04 02:04:08;;;;;;;;;;;15.60;59.00;;;;;;5209229;28;20392;-34
2022/04/04 02:06:40;;;;;;;;;;;15.70;58.80;;;;;;5208874;28;19928;-34
2022/04/04 02:09:11;;;;;;;;;;;15.70;58.50;;;;;;5207709;28;19925;-33
2022/04/04 02:11:43;;;;;;;;;;;15.70;58.20;;;;;;5208993;28;19928;-34
2022/04/04 02:14:14;;;;;;;;;;;15.70;58.10;;;;;;5208828;28;19921;-34
2022/04/04 02:16:45;;;;;;;;;;;15.70;58.00;;;;;;5207974;28;19947;-33
2022/04/04 02:19:18;;;;;;;;;;;15.70;57.80;;;;;;5208803;28;19920;-34
2022/04/04 02:21:49;;;;;;;;;;;15.70;57.70;;;;;;5208632;28;19928;-34
2022/04/04 02:24:20;;;;;;;;;;;15.70;57.60;;;;;;5208744;28;19925;-34
2022/04/04 02:26:51;;;;;;;;;;;15.70;57.40;;;;;;5208556;28;19921;-34
2022/04/04 02:29:22;;;;;;;;;;;15.60;57.40;;;;;;5208390;28;20371;-33
2022/04/04 02:31:53;;;;;;;;;;;15.60;57.20;;;;;;5207286;28;19921;-34
2022/04/04 02:34:23;;;;;;;;;;;15.70;57.20;;;;;;5208644;28;19925;-33
2022/04/04 02:36:55;;;;;;;;;;;15.60;57.00;;;;;;5207972;28;19925;-34
2022/04/04 02:39:25;;;;;;;;;;;15.60;56.90;;;;;;5207204;28;19921;-34
2022/04/04 02:41:57;;;;;;;;;;;15.60;57.00;;;;;;5208478;28;19921;-34
2022/04/04 02:44:27;;;;;;;;;;;15.60;57.00;;;;;;5207217;28;19921;-34
2022/04/04 02:46:58;;;;;;;;;;;15.50;57.10;;;;;;5190678;28;19921;-33
2022/04/04 02:49:29;;;;;;;;;;;15.60;57.10;;;;;;5208314;28;19990;-34
2022/04/04 02:52:00;;;;;;;;;;;15.50;57.10;;;;;;5206997;28;19925;-33
2022/04/04 02:54:31;;;;;;;;;;;15.60;57.20;;;;;;5208262;28;19928;-34
2022/04/04 02:57:02;;;;;;;;;;;15.50;57.20;;;;;;5207139;28;20397;-34
2022/04/04 02:59:33;;;;;;;;;;;15.60;57.30;;;;;;5208677;28;19928;-34
2022/04/04 03:02:04;;;;;;;;;;;15.60;57.40;;;;;;5208322;28;20390;-34
2022/04/04 03:04:35;;;;;;;;;;;15.60;57.50;;;;;;5208128;28;19925;-34
2022/04/04 03:07:07;;;;;;;;;;;15.60;57.60;;;;;;5207861;28;19928;-34
2022/04/04 03:09:38;;;;;;;;;;;15.50;57.60;;;;;;5208214;28;19928;-34
2022/04/04 03:12:09;;;;;;;;;;;15.50;57.90;;;;;;5208680;28;20270;-34
2022/04/04 03:14:40;;;;;;;;;;;15.50;58.00;;;;;;5206699;28;19928;-34
2022/04/04 03:17:11;;;;;;;;;;;15.60;58.20;;;;;;5207788;28;20390;-34
2022/04/04 03:19:42;;;;;;;;;;;15.60;58.40;;;;;;5207672;28;19964;-34
2022/04/04 03:22:13;;;;;;;;;;;15.50;58.80;;;;;;5208224;28;20416;-34
2022/04/04 03:24:44;;;;;;;;;;;15.50;59.00;;;;;;5207461;28;20038;-34
2022/04/04 03:27:15;;;;;;;;;;;15.50;59.10;;;;;;5207498;28;19921;-33
2022/04/04 03:29:46;;;;;;;;;;;15.50;59.20;;;;;;5207719;28;20365;-33
2022/04/04 03:32:17;;;;;;;;;;;15.50;59.30;;;;;;5207890;28;19927;-34
2022/04/04 03:34:48;;;;;;;;;;;15.50;59.30;;;;;;5207344;28;19999;-34
2022/04/04 03:37:19;;;;;;;;;;;15.50;59.50;;;;;;5189009;28;19972;-34
2022/04/04 03:39:50;;;;;;;;;;;15.50;59.60;;;;;;5207200;28;19921;-34
2022/04/04 03:42:21;;;;;;;;;;;15.40;59.60;;;;;;5208356;28;19928;-34
2022/04/04 03:44:53;;;;;;;;;;;15.50;59.70;;;;;;5207865;28;20358;-33
2022/04/04 03:47:24;;;;;;;;;;;15.40;59.60;;;;;;5206397;28;19921;-33
2022/04/04 03:49:54;;;;;;;;;;;15.50;59.70;;;;;;5207885;28;19925;-33
2022/04/04 03:52:26;;;;;;;;;;;15.50;59.60;;;;;;5207418;28;19929;-34
2022/04/04 03:54:57;;;;;;;;;;;15.60;59.40;;;;;;5207563;28;19925;-34
2022/04/04 03:57:28;;;;;;;;;;;15.60;59.30;;;;;;5206936;28;19921;-34
2022/04/04 03:59:59;;;;;;;;;;;15.70;59.20;;;;;;5206695;28;19921;-34
2022/04/04 04:02:30;;;;;;;;;;;15.80;59.10;;;;;;5207537;28;19925;-34
2022/04/04 04:05:01;;;;;;;;;;;15.90;58.90;;;;;;5207418;28;19921;-34
2022/04/04 04:07:32;;;;;;;;;;;16.00;59.00;;;;;;5207739;28;20005;-34
2022/04/04 04:10:03;;;;;;;;;;;16.00;58.90;;;;;;5205136;28;20395;-34
2022/04/04 04:12:34;;;;;;;;;;;15.80;58.90;;;;;;5206406;28;19932;-34
2022/04/04 04:15:06;;;;;;;;;;;14.20;62.80;;;;;;5207006;28;19921;-34
2022/04/04 04:17:37;;;;;;;;;;;13.40;64.50;;;;;;5207295;28;19920;-34
2022/04/04 04:20:22;;;;;;;;;;;13.00;65.30;;;;;;5184756;28;20361;-34
2022/04/04 04:22:54;;;;;;;;;;;12.80;65.80;;;;;;5168647;28;20385;-33
2022/04/04 04:25:27;;;;;;;;;;;12.70;66.30;;;;;;5182715;28;19922;-34
2022/04/04 04:28:00;;;;;;;;;;;12.60;66.80;;;;;;5183915;28;19921;-33
2022/04/04 04:30:31;;;;;;;;;;;12.50;67.30;;;;;;5183976;28;19928;-33
2022/04/04 04:33:03;;;;;;;;;;;12.50;67.60;;;;;;5184212;28;20393;-33
2022/04/04 04:35:33;;;;;;;;;;;12.40;67.90;;;;;;5184593;28;19922;-33
2022/04/04 04:38:05;;;;;;;;;;;12.40;68.30;;;;;;5183986;28;19925;-35
2022/04/04 04:40:35;;;;;;;;;;;12.40;68.70;;;;;;5186812;28;19922;-33
2022/04/04 04:43:06;;;;;;;;;;;12.30;69.10;;;;;;5187924;28;19929;-33
2022/04/04 04:45:37;;;;;;;;;;;12.40;69.60;;;;;;5188070;28;20282;-33
2022/04/04 04:48:08;;;;;;;;;;;12.30;69.70;;;;;;5188197;28;20290;-33
2022/04/04 04:50:39;;;;;;;;;;;12.30;69.80;;;;;;5195951;28;19925;-33
2022/04/04 04:53:10;;;;;;;;;;;12.40;70.00;;;;;;5210307;28;19930;-33
2022/04/04 04:55:41;;;;;;;;;;;12.40;70.20;;;;;;5210785;28;19921;-33
2022/04/04 04:58:12;;;;;;;;;;;12.40;70.60;;;;;;5210320;28;19975;-33
2022/04/04 05:00:43;;;;;;;;;;;12.40;70.70;;;;;;5209282;28;20294;-33
2022/04/04 05:03:26;;;;;;;;;;;12.40;70.70;;;;;;5210336;28;19921;-33
2022/04/04 05:05:58;;;;;;;;;;;12.30;70.80;;;;;;5210473;28;19944;-34
2022/04/04 05:08:30;;;;;;;;;;;12.30;70.80;;;;;;5200430;28;19921;-33
2022/04/04 05:11:01;;;;;;;;;;;12.30;71.00;;;;;;5206527;28;19925;-33
2022/04/04 05:13:33;;;;;;;;;;;12.30;71.00;;;;;;5207643;28;19991;-33
2022/04/04 05:16:08;;;;;;;;;;;12.30;71.10;;;;;;5208198;28;19925;-33
2022/04/04 05:18:42;;;;;;;;;;;12.30;71.20;;;;;;5207784;28;19925;-33
2022/04/04 05:21:13;;;;;;;;;;;12.30;71.30;;;;;;5207812;28;19928;-33
2022/04/04 05:23:47;;;;;;;;;;;12.30;71.40;;;;;;5207559;28;20002;-34
2022/04/04 05:26:18;;;;;;;;;;;12.30;71.50;;;;;;5207900;28;19921;-34
2022/04/04 05:28:49;;;;;;;;;;;12.40;71.80;;;;;;5207554;28;19921;-34
2022/04/04 05:31:19;;;;;;;;;;;12.90;70.30;;;;;;5207822;28;19921;-33
2022/04/04 05:33:51;;;;;;;;;;;13.40;69.10;;;;;;5206624;28;19928;-34
2022/04/04 05:36:21;;;;;;;;;;;13.80;68.30;;;;;;5206911;28;19920;-35
2022/04/04 05:38:53;;;;;;;;;;;14.10;67.50;;;;;;5207521;28;19929;-34
2022/04/04 05:41:23;;;;;;;;;;;14.30;66.80;;;;;;5207327;28;20255;-34
2022/04/04 05:43:55;;;;;;;;;;;14.40;66.50;;;;;;5206690;28;19936;-34
2022/04/04 05:46:25;;;;;;;;;;;14.60;66.20;;;;;;5207121;28;20433;-33
2022/04/04 05:48:57;;;;;;;;;;;14.70;66.00;;;;;;5187875;28;19964;-34
2022/04/04 05:51:28;;;;;;;;;;;14.80;65.90;;;;;;5205605;28;20381;-34
2022/04/04 05:53:59;;;;;;;;;;;14.90;65.80;;;;;;5192844;28;19921;-34
2022/04/04 05:56:32;;;;;;;;;;;15.00;65.60;;;;;;5207030;28;19920;-34
2022/04/04 05:59:03;;;;;;;;;;;15.10;65.40;;;;;;5206702;28;19941;-34
2022/04/04 06:01:35;;;;;;;;;;;15.10;65.50;;;;;;5206637;28;19952;-34
2022/04/04 06:04:06;;;;;;;;;;;15.10;65.60;;;;;;5206565;28;19971;-34
2022/04/04 06:06:37;;;;;;;;;;;15.10;65.70;;;;;;5206842;28;20445;-34
2022/04/04 06:09:08;;;;;;;;;;;15.10;65.80;;;;;;5206723;28;19979;-34
2022/04/04 06:11:39;;;;;;;;;;;15.10;66.10;;;;;;5206395;28;19921;-34
2022/04/04 06:14:10;;;;;;;;;;;15.00;66.20;;;;;;5206412;28;19920;-34
2022/04/04 06:16:40;;;;;;;;;;;15.00;66.30;;;;;;5204980;28;19928;-34
2022/04/04 06:19:11;;;;;;;;;;;15.10;66.40;;;;;;5206440;28;19921;-34
2022/04/04 06:21:42;;;;;;;;;;;15.20;66.30;;;;;;5206350;28;20290;-34
2022/04/04 06:24:13;;;;;;;;;;;15.30;66.10;;;;;;5206169;28;20374;-34
2022/04/04 06:26:44;;;;;;;;;;;15.30;66.20;;;;;;5206446;28;19956;-33
2022/04/04 06:29:15;;;;;;;;;;;15.30;66.30;;;;;;5205193;28;20359;-34
2022/04/04 06:31:46;;;;;;;;;;;15.40;66.30;;;;;;5206052;28;19928;-34
2022/04/04 06:34:17;;;;;;;;;;;15.40;66.30;;;;;;5197821;28;19948;-33
2022/04/04 06:36:48;;;;;;;;;;;15.40;66.40;;;;;;5199079;28;20425;-33
2022/04/04 06:39:19;;;;;;;;;;;15.30;66.60;;;;;;5206220;28;20333;-34
2022/04/04 06:41:51;;;;;;;;;;;15.40;66.70;;;;;;5206004;28;19925;-33
2022/04/04 06:44:23;;;;;;;;;;;15.50;66.50;;;;;;5204769;28;19924;-33
2022/04/04 06:46:56;;;;;;;;;;;15.50;66.30;;;;;;5205927;28;19929;-34
2022/04/04 06:49:27;;;;;;;;;;;15.50;66.20;;;;;;5204172;28;19921;-34
2022/04/04 06:51:58;;;;;;;;;;;15.40;66.40;;;;;;5205767;28;20366;-36
2022/04/04 06:54:29;;;;;;;;;;;15.30;66.50;;;;;;5206007;28;19947;-34
2022/04/04 06:57:00;;;;;;;;;;;15.40;66.30;;;;;;5205931;28;19925;-33
2022/04/04 06:59:32;;;;;;;;;;;15.30;66.20;;;;;;5191838;28;19928;-35
2022/04/04 07:02:03;;;;;;;;;;;15.30;66.70;;;;;;5205172;28;19925;-34
2022/04/04 07:04:37;;;;;;;;;;;15.30;66.20;;;;;;5205670;28;19932;-34
2022/04/04 07:07:08;;;;;;;;;;;15.30;66.20;;;;;;5204358;28;19921;-34
2022/04/04 07:09:39;;;;;;;;;;;15.40;66.10;;;;;;5205529;28;19967;-33
2022/04/04 07:12:10;;;;;;;;;;;15.40;66.10;;;;;;5205356;28;20321;-33
2022/04/04 07:14:41;;;;;;;;;;;15.30;66.20;;;;;;5205660;28;19921;-33
2022/04/04 07:17:12;;;;;;;;;;;15.30;66.20;;;;;;5205756;28;19983;-34
2022/04/04 07:19:43;;;;;;;;;;;15.50;66.00;;;;;;5205482;28;19921;-34
2022/04/04 07:22:15;;;;;;;;;;;15.50;65.60;;;;;;5199534;28;19921;-34
2022/04/04 07:24:46;;;;;;;;;;;15.60;65.70;;;;;;5163153;28;20260;-34
2022/04/04 07:27:17;;;;;;;;;;;15.70;65.60;;;;;;5163359;28;19933;-33
2022/04/04 07:29:48;;;;;;;;;;;15.60;65.60;;;;;;5164721;28;19943;-34
2022/04/04 07:32:19;;;;;;;;;;;15.70;65.70;;;;;;5164816;28;20012;-35
2022/04/04 07:34:50;;;;;;;;;;;15.70;65.90;;;;;;5155631;28;19922;-34
2022/04/04 07:37:22;;;;;;;;;;;15.70;65.90;;;;;;5174734;28;19921;-34
2022/04/04 07:39:53;;;;;;;;;;;15.70;66.00;;;;;;5184768;28;19964;-34
2022/04/04 07:42:24;;;;;;;;;;;15.70;66.40;;;;;;5184824;28;20391;-34
2022/04/04 07:44:55;;;;;;;;;;;15.70;65.70;;;;;;5184825;28;19928;-34
2022/04/04 07:47:26;;;;;;;;;;;15.60;65.60;;;;;;5184342;28;19921;-34
2022/04/04 07:49:59;;;;;;;;;;;15.70;65.50;;;;;;5185132;28;19960;-33
2022/04/04 07:52:30;;;;;;;;;;;15.70;65.40;;;;;;5184669;28;20386;-34
2022/04/04 07:55:02;;;;;;;;;;;15.70;65.70;;;;;;5167350;28;19928;-33
2022/04/04 07:57:34;;;;;;;;;;;15.70;65.80;;;;;;5184313;28;20016;-33
2022/04/04 08:00:05;;;;;;;;;;;15.60;65.60;;;;;;5184381;28;19948;-34
2022/04/04 08:02:36;;;;;;;;;;;15.70;65.10;;;;;;5167176;28;20264;-35
2022/04/04 08:05:08;;;;;;;;;;;15.70;65.00;;;;;;5119972;28;19929;-33
2022/04/04 08:07:40;;;;;;;;;;;15.60;64.80;;;;;;5121804;29;20304;-33
2022/04/04 08:10:11;;;;;;;;;;;15.60;64.90;;;;;;5121985;29;19929;-33
2022/04/04 08:12:42;;;;;;;;;;;15.60;64.50;;;;;;5121696;29;19926;-33
2022/04/04 08:15:13;;;;;;;;;;;15.60;64.10;;;;;;5123056;28;19923;-34
2022/04/04 08:17:45;;;;;;;;;;;15.60;64.00;;;;;;5125823;29;19930;-34
2022/04/04 08:20:17;;;;;;;;;;;15.50;64.00;;;;;;5125558;29;19965;-34
2022/04/04 08:22:48;;;;;;;;;;;15.50;63.90;;;;;;5125593;29;19993;-34
2022/04/04 08:25:19;;;;;;;;;;;15.60;63.80;;;;;;5125485;29;19926;-34
2022/04/04 08:27:50;;;;;;;;;;;15.50;63.80;;;;;;5125700;29;19922;-34
2022/04/04 08:30:21;;;;;;;;;;;15.50;63.80;;;;;;5125365;29;20017;-33
2022/04/04 08:32:52;;;;;;;;;;;15.40;63.80;;;;;;5125600;29;20017;-33
2022/04/04 08:35:23;;;;;;;;;;;15.50;63.60;;;;;;5139775;28;19922;-34
2022/04/04 08:37:54;;;;;;;;;;;15.50;63.60;;;;;;5187643;28;20278;-33
2022/04/04 08:40:25;;;;;;;;;;;15.40;63.60;;;;;;5188128;28;19928;-33
2022/04/04 08:42:56;;;;;;;;;;;15.40;63.70;;;;;;5188136;28;19921;-34
2022/04/04 08:45:28;;;;;;;;;;;15.40;63.70;;;;;;5170326;28;19971;-34
2022/04/04 08:47:59;;;;;;;;;;;15.40;63.30;;;;;;5187115;28;20445;-33
2022/04/04 08:50:30;;;;;;;;;;;15.30;63.00;;;;;;5187979;28;19921;-34
2022/04/04 08:53:02;;;;;;;;;;;15.30;62.90;;;;;;5153540;28;19983;-33
2022/04/04 08:55:35;;;;;;;;;;;15.30;62.70;;;;;;5170312;28;19921;-33
2022/04/04 08:58:06;;;;;;;;;;;15.30;62.10;;;;;;5170397;28;20354;-34
2022/04/04 09:00:40;;;;;;;;;;;15.20;61.70;;;;;;5187511;28;19971;-34
2022/04/04 09:03:17;;;;;;;;;;;15.20;61.70;;;;;;5187925;28;20020;-33
2022/04/04 09:05:55;;;;;;;;;;;15.30;61.00;;;;;;5187628;28;20359;-33
2022/04/04 09:08:28;;;;;;;;;;;15.30;60.50;;;;;;5169982;28;19949;-34
2022/04/04 09:11:00;;;;;;;;;;;15.30;60.50;;;;;;5187480;28;19921;-34
2022/04/04 09:13:32;;;;;;;;;;;15.40;60.70;;;;;;5169655;28;19999;-33
2022/04/04 09:16:07;;;;;;;;;;;15.30;60.80;;;;;;5187572;28;19925;-33
2022/04/04 09:18:39;;;;;;;;;;;15.30;61.00;;;;;;5187149;28;20008;-33
2022/04/04 09:21:32;;;;;;;;;;;15.40;61.00;;;;;;5187208;28;20520;-34
2022/04/04 09:24:07;;;;;;;;;;;15.30;60.80;;;;;;5187370;28;20012;-33
2022/04/04 09:26:39;;;;;;;;;;;15.40;61.10;;;;;;5186941;28;19974;-33
2022/04/04 09:29:16;;;;;;;;;;;15.40;60.10;;;;;;5187280;28;20024;-33
2022/04/04 09:31:55;;;;;;;;;;;15.40;60.30;;;;;;5169615;28;20367;-34
2022/04/04 09:34:26;;;;;;;;;;;15.40;60.40;;;;;;5169858;28;19921;-33
2022/04/04 09:36:58;;;;;;;;;;;15.40;60.40;;;;;;5185830;28;20334;-33
2022/04/04 09:39:29;;;;;;;;;;;15.30;60.40;;;;;;5187064;28;20721;-34
2022/04/04 09:42:01;;;;;;;;;;;15.40;60.30;;;;;;5169267;28;20326;-33
2022/04/04 09:44:33;;;;;;;;;;;15.40;60.50;;;;;;5144084;28;20380;-33
2022/04/04 09:47:04;;;;;;;;;;;15.40;60.90;;;;;;5144092;28;19929;-33
2022/04/04 09:49:40;;;;;;;;;;;15.40;60.90;;;;;;5144009;28;19996;-33
2022/04/04 09:52:16;;;;;;;;;;;15.40;60.80;;;;;;5143956;28;19922;-33
2022/04/04 09:54:47;;;;;;;;;;;15.40;60.90;;;;;;5127728;28;19926;-33
2022/04/04 09:57:20;;;;;;;;;;;15.30;60.90;;;;;;5110104;28;19946;-33
2022/04/04 09:59:53;;;;;;;;;;;15.30;61.10;;;;;;5143937;28;20336;-36
2022/04/04 10:02:24;;;;;;;;;;;15.20;60.50;;;;;;5128080;28;20501;-33
2022/04/04 10:04:56;;;;;;;;;;;15.10;60.60;;;;;;5143657;28;19953;-34
2022/04/04 10:07:31;;;;;;;;;;;15.00;60.10;;;;;;5127724;28;19929;-33
2022/04/04 10:10:04;;;;;;;;;;;15.00;59.90;;;;;;5127816;28;19922;-33
2022/04/04 10:12:35;;;;;;;;;;;15.00;59.90;;;;;;5127667;28;19929;-33
2022/04/04 10:15:08;;;;;;;;;;;14.90;59.90;;;;;;5127411;28;19926;-33
2022/04/04 10:17:39;;;;;;;;;;;14.90;59.90;;;;;;5127524;28;19929;-34
2022/04/04 10:20:11;;;;;;;;;;;15.00;59.50;;;;;;5143415;28;19922;-34
2022/04/04 10:22:43;;;;;;;;;;;15.00;59.70;;;;;;5178380;28;20371;-34
2022/04/04 10:25:16;;;;;;;;;;;15.00;59.60;;;;;;5186092;28;20351;-34
2022/04/04 10:27:48;;;;;;;;;;;15.00;59.80;;;;;;5186043;28;20023;-34
2022/04/04 10:30:29;;;;;;;;;;;15.00;59.90;;;;;;5185868;28;19957;-34
2022/04/04 10:33:05;;;;;;;;;;;15.00;60.20;;;;;;5131607;28;19933;-34
2022/04/04 10:35:41;;;;;;;;;;;15.10;60.10;;;;;;5185375;28;20020;-34
2022/04/04 10:38:19;;;;;;;;;;;15.00;60.00;;;;;;5129290;28;19980;-34
2022/04/04 10:40:51;;;;;;;;;;;14.90;60.70;;;;;;5144130;28;20012;-34
2022/04/04 10:43:25;;;;;;;;;;;14.80;60.00;;;;;;5144349;28;19961;-34
2022/04/04 10:45:58;;;;;;;;;;;14.80;59.80;;;;;;5144316;28;20410;-33
2022/04/04 10:48:30;;;;;;;;;;;14.90;59.50;;;;;;5144037;28;20014;-33
2022/04/04 10:51:23;;;;;;;;;;;14.90;59.50;;;;;;5145184;28;19929;-34
2022/04/04 10:53:56;;;;;;;;;;;14.90;59.90;;;;;;5103109;29;20276;-33
2022/04/04 10:56:27;;;;;;;;;;;15.00;60.20;;;;;;5086765;29;20443;-34
2022/04/04 10:59:18;;;;;;;;;;;15.00;60.50;;;;;;5102405;29;19930;-33
2022/04/04 11:01:49;;;;;;;;;;;14.90;60.20;;;;;;5103078;29;20419;-33
2022/04/04 11:04:23;;;;;;;;;;;14.90;60.30;;;;;;5087224;29;19923;-34
2022/04/04 11:10:05;;;;;;;;;;;14.90;60.00;;;;;;5102899;29;20479;-34
2022/04/04 11:12:55;;;;;;;;;;;14.90;60.10;;;;;;5103012;29;20119;-33
2022/04/04 11:15:42;;;;;;;;;;;14.80;59.60;;;;;;5087228;29;19922;-34
2022/04/04 11:18:13;;;;;;;;;;;14.80;59.90;;;;;;5102471;29;19927;-34
2022/04/04 11:20:49;;;;;;;;;;;14.80;59.50;;;;;;5087146;29;20349;-33
2022/04/04 11:23:23;;;;;;;;;;;14.80;59.60;;;;;;5102601;29;19991;-34
2022/04/04 11:25:54;;;;;;;;;;;14.90;59.90;;;;;;5083251;29;19959;-34
2022/04/04 11:28:30;;;;;;;;;;;14.90;59.70;;;;;;5082941;29;20265;-34
2022/04/04 11:31:03;;;;;;;;;;;14.80;60.00;;;;;;5115319;28;19972;-34
2022/04/04 11:33:51;;;;;;;;;;;14.80;59.90;;;;;;5142423;28;19944;-34
2022/04/04 11:36:27;;;;;;;;;;;14.80;59.60;;;;;;5126379;28;19922;-34
2022/04/04 11:39:03;;;;;;;;;;;14.80;59.50;;;;;;5142184;28;19926;-34
2022/04/04 11:41:46;;;;;;;;;;;14.80;59.70;;;;;;5142509;28;20395;-34
2022/04/04 11:44:25;;;;;;;;;;;14.80;59.40;;;;;;5114186;28;19926;-34
2022/04/04 11:47:03;;;;;;;;;;;14.70;59.70;;;;;;5139960;28;19922;-34
2022/04/04 11:49:37;;;;;;;;;;;14.80;59.60;;;;;;5144767;28;19976;-34
2022/04/04 11:52:09;;;;;;;;;;;14.80;59.50;;;;;;5146180;28;20013;-34
2022/04/04 11:54:43;;;;;;;;;;;14.80;59.80;;;;;;5146366;28;20027;-33
2022/04/04 11:57:14;;;;;;;;;;;14.90;59.80;;;;;;5160963;28;20371;-33
2022/04/04 11:59:46;;;;;;;;;;;14.80;59.90;;;;;;5169685;28;19961;-34
2022/04/04 12:02:22;;;;;;;;;;;14.70;59.70;;;;;;5170791;28;19968;-34
2022/04/04 12:05:06;;;;;;;;;;;14.70;59.50;;;;;;5170932;28;20016;-34
2022/04/04 12:07:50;;;;;;;;;;;14.80;59.50;;;;;;5170771;28;20356;-34
2022/04/04 12:10:32;;;;;;;;;;;14.90;59.20;;;;;;5170482;28;19930;-34
2022/04/04 12:13:08;;;;;;;;;;;14.80;59.60;;;;;;5170956;28;19921;-34
2022/04/04 12:15:42;;;;;;;;;;;14.90;59.60;;;;;;5170608;28;19969;-34
2022/04/04 12:18:20;;;;;;;;;;;14.90;59.40;;;;;;5170464;28;20008;-34
2022/04/04 12:20:51;;;;;;;;;;;14.90;59.30;;;;;;5169365;28;19928;-34
2022/04/04 12:26:14;;;;;;;;;;;14.80;59.50;;;;;;5170326;28;20024;-34
2022/04/04 12:28:48;;;;;;;;;;;14.80;59.60;;;;;;5170408;28;20293;-34
2022/04/04 12:31:23;;;;;;;;;;;14.80;59.50;;;;;;5170178;28;20253;-34
2022/04/04 12:34:01;;;;;;;;;;;14.80;59.40;;;;;;5170277;28;20012;-34
2022/04/04 12:36:35;;;;;;;;;;;14.80;59.40;;;;;;5174238;28;20379;-34
2022/04/04 12:39:06;;;;;;;;;;;14.80;59.10;;;;;;5190448;28;20401;-33
2022/04/04 12:41:43;;;;;;;;;;;14.80;59.10;;;;;;5190648;28;19921;-33
2022/04/04 12:44:18;;;;;;;;;;;14.90;58.70;;;;;;5189845;28;20374;-34
2022/04/04 12:46:49;;;;;;;;;;;14.80;58.30;;;;;;5190238;28;19960;-33
2022/04/04 12:49:22;;;;;;;;;;;14.90;58.70;;;;;;5190831;28;19921;-33
2022/04/04 12:51:55;;;;;;;;;;;14.90;58.30;;;;;;5172690;28;19925;-33
2022/04/04 12:54:34;;;;;;;;;;;14.90;58.40;;;;;;5190170;28;20426;-33
2022/04/04 12:57:06;;;;;;;;;;;14.90;58.60;;;;;;5189949;28;20027;-33
2022/04/04 12:59:54;;;;;;;;;;;14.90;58.10;;;;;;5189566;28;20486;-33
2022/04/04 13:02:32;;;;;;;;;;;14.80;57.90;;;;;;5190738;28;19928;-33
2022/04/04 13:05:15;;;;;;;;;;;14.80;57.90;;;;;;5189830;28;20016;-33
2022/04/04 13:07:53;;;;;;;;;;;14.80;58.00;;;;;;5188922;28;19922;-33
2022/04/04 13:10:26;;;;;;;;;;;14.80;58.00;;;;;;5189109;28;20379;-33
2022/04/04 13:13:14;;;;;;;;;;;14.80;57.80;;;;;;5189865;28;20386;-34
2022/04/04 13:15:50;;;;;;;;;;;14.90;58.10;;;;;;5172406;28;20383;-33
2022/04/04 13:18:24;;;;;;;;;;;14.90;58.20;;;;;;5190185;28;19925;-34
2022/04/04 13:20:57;;;;;;;;;;;14.90;58.10;;;;;;5189884;28;20010;-34
2022/04/04 13:23:28;;;;;;;;;;;14.90;57.90;;;;;;5189827;28;20353;-33
2022/04/04 13:26:00;;;;;;;;;;;15.00;57.90;;;;;;5189304;28;19921;-34
2022/04/04 13:28:32;;;;;;;;;;;14.90;58.10;;;;;;5189365;28;19921;-34
2022/04/04 13:31:04;;;;;;;;;;;14.90;58.30;;;;;;5189371;28;19929;-33
2022/04/04 13:33:35;;;;;;;;;;;14.80;58.00;;;;;;5189674;28;19926;-33
2022/04/04 13:36:06;;;;;;;;;;;14.80;57.80;;;;;;5188487;28;19928;-33
2022/04/04 13:38:42;;;;;;;;;;;14.90;58.10;;;;;;5189572;28;19922;-33
2022/04/04 13:41:20;;;;;;;;;;;14.90;58.20;;;;;;5189841;28;19925;-33
2022/04/04 13:43:57;;;;;;;;;;;14.90;58.30;;;;;;5189437;28;20363;-33
2022/04/04 13:46:31;;;;;;;;;;;14.90;58.60;;;;;;5172129;28;20401;-33
2022/04/04 13:49:02;;;;;;;;;;;14.90;58.70;;;;;;5189108;28;20008;-33
2022/04/04 13:51:33;;;;;;;;;;;14.80;58.60;;;;;;5188282;28;20367;-33
2022/04/04 13:54:04;;;;;;;;;;;14.80;58.50;;;;;;5188197;28;20091;-34
2022/04/04 13:56:35;;;;;;;;;;;14.90;58.20;;;;;;5188226;28;20369;-33
2022/04/04 13:59:06;;;;;;;;;;;14.90;58.10;;;;;;5188281;28;19949;-33
2022/04/04 14:01:37;;;;;;;;;;;14.90;59.00;;;;;;5188255;28;19921;-34
2022/04/04 14:04:09;;;;;;;;;;;14.90;59.00;;;;;;5188138;28;19928;-33
2022/04/04 14:06:40;;;;;;;;;;;14.90;58.80;;;;;;5188549;28;19922;-33
2022/04/04 14:09:12;;;;;;;;;;;14.90;60.20;;;;;;5188161;28;19928;-33
2022/04/04 14:11:43;;;;;;;;;;;14.90;58.70;;;;;;5188167;28;20279;-33
2022/04/04 14:14:14;;;;;;;;;;;14.90;58.90;;;;;;5154201;28;19925;-34
2022/04/04 14:16:47;;;;;;;;;;;14.90;58.80;;;;;;5188409;28;19953;-33
2022/04/04 14:19:17;;;;;;;;;;;14.80;59.00;;;;;;5188308;28;20279;-33
2022/04/04 14:21:48;;;;;;;;;;;14.80;59.00;;;;;;5188472;28;19921;-33
2022/04/04 14:24:19;;;;;;;;;;;14.90;59.10;;;;;;5188253;28;20359;-33
2022/04/04 14:26:52;;;;;;;;;;;14.90;58.80;;;;;;5170303;28;20029;-33
2022/04/04 14:29:23;;;;;;;;;;;15.00;58.60;;;;;;5188267;28;20040;-33
2022/04/04 14:31:54;;;;;;;;;;;14.90;58.60;;;;;;5170561;28;19952;-33
2022/04/04 14:34:25;;;;;;;;;;;15.00;58.40;;;;;;5166607;28;20404;-34
2022/04/04 14:36:58;;;;;;;;;;;15.00;58.00;;;;;;5181464;28;19921;-34
2022/04/04 14:39:29;;;;;;;;;;;15.10;57.90;;;;;;5185967;28;19956;-33
2022/04/04 14:42:01;;;;;;;;;;;15.20;58.20;;;;;;5185935;28;20378;-34
2022/04/04 14:44:33;;;;;;;;;;;15.30;58.20;;;;;;5168097;28;19921;-34
2022/04/04 14:47:04;;;;;;;;;;;15.40;57.90;;;;;;5186009;28;20016;-34
2022/04/04 14:49:35;;;;;;;;;;;15.40;57.60;;;;;;5185629;28;19944;-34
2022/04/04 14:52:10;;;;;;;;;;;15.40;57.50;;;;;;5179827;28;20003;-34